Time;durP1;ratioP1;P1;durP2;ratioP2;P2;SDS_P1;SDS_P2;PMS_P1;PMS_P2;Temp;Humidity;BMP_temperature;BMP_pressure;BME280_temperature;BME280_humidity;BME280_pressure;Samples;Min_cycle;Max_cycle;Signal;HPM_P1;HPM_P2
2023/10/30 00:03:40;;;;;;;9.98;2.10;;;;;;;10.07;100.00;99500.22;10430422;28;20609;-81
2023/10/30 00:08:40;;;;;;;13.93;4.63;;;;;;;10.12;100.00;99516.00;10423695;28;20120;-81
2023/10/30 00:13:44;;;;;;;7.18;2.90;;;;;;;10.14;100.00;99520.47;10441347;28;20037;-81
2023/10/30 00:18:45;;;;;;;14.77;4.82;;;;;;;10.17;100.00;99521.38;10421692;28;20041;-81
2023/10/30 00:23:46;;;;;;;15.57;4.53;;;;;;;10.28;100.00;99533.03;10474640;28;20127;-80
2023/10/30 00:28:46;;;;;;;10.25;2.95;;;;;;;10.34;100.00;99533.19;10450937;28;20059;-80
2023/10/30 00:33:47;;;;;;;10.02;2.30;;;;;;;10.19;100.00;99545.84;10469125;28;20127;-81
2023/10/30 00:38:47;;;;;;;9.35;2.72;;;;;;;10.29;100.00;99555.72;10466855;28;20119;-81
2023/10/30 00:43:48;;;;;;;16.27;3.85;;;;;;;10.25;100.00;99557.34;10484348;28;20495;-80
2023/10/30 00:48:48;;;;;;;9.25;3.03;;;;;;;10.29;100.00;99563.56;10460849;28;20094;-79
2023/10/30 00:53:49;;;;;;;11.10;2.75;;;;;;;10.35;100.00;99578.53;10456176;28;20040;-80
2023/10/30 00:58:49;;;;;;;12.07;3.35;;;;;;;10.34;100.00;99580.28;10456797;28;20571;-80
2023/10/30 01:03:50;;;;;;;11.27;2.95;;;;;;;10.39;100.00;99585.63;10454607;28;20444;-81
2023/10/30 01:08:50;;;;;;;5.95;2.25;;;;;;;10.51;100.00;99588.59;10458701;28;20060;-81
2023/10/30 01:13:51;;;;;;;15.13;3.70;;;;;;;10.54;100.00;99570.38;10458942;28;20449;-82
2023/10/30 01:18:51;;;;;;;10.70;2.60;;;;;;;10.55;100.00;99585.22;10455072;28;20152;-80
2023/10/30 01:23:52;;;;;;;9.80;2.53;;;;;;;10.68;100.00;99577.69;10448687;28;20132;-81
2023/10/30 01:28:52;;;;;;;17.70;6.93;;;;;;;10.66;100.00;99568.94;10450266;28;20123;-80
2023/10/30 01:33:54;;;;;;;11.25;4.07;;;;;;;10.53;100.00;99575.56;10461281;28;20096;-80
2023/10/30 01:38:54;;;;;;;9.10;2.67;;;;;;;10.63;100.00;99574.97;10462576;28;20132;-80
2023/10/30 01:43:55;;;;;;;7.18;2.30;;;;;;;10.58;100.00;99576.59;10463196;28;20041;-80
2023/10/30 01:48:55;;;;;;;9.73;2.33;;;;;;;10.51;100.00;99583.38;10429414;28;20125;-81
2023/10/30 01:53:56;;;;;;;15.38;3.35;;;;;;;10.52;100.00;99584.28;10438085;28;20124;-80
2023/10/30 01:58:56;;;;;;;9.02;3.13;;;;;;;10.43;100.00;99588.41;10454215;28;20128;-81
2023/10/30 02:03:58;;;;;;;10.70;2.38;;;;;;;10.43;100.00;99598.88;10457969;28;20047;-81
2023/10/30 02:08:58;;;;;;;9.17;2.43;;;;;;;10.40;100.00;99584.81;10467884;28;20040;-79
2023/10/30 02:13:59;;;;;;;10.57;2.08;;;;;;;10.58;100.00;99580.06;10474002;28;20048;-80
2023/10/30 02:18:59;;;;;;;14.63;3.20;;;;;;;10.43;100.00;99582.28;10456120;28;20120;-80
2023/10/30 02:24:09;;;;;;;19.77;2.38;;;;;;;10.26;100.00;99572.19;10457287;28;20037;-80
2023/10/30 02:29:09;;;;;;;6.93;2.60;;;;;;;10.16;100.00;99588.47;10457205;28;20033;-79
2023/10/30 02:34:11;;;;;;;9.25;2.78;;;;;;;10.22;100.00;99585.16;10435650;28;20504;-80
2023/10/30 02:39:12;;;;;;;12.15;2.90;;;;;;;10.12;100.00;99581.38;10447465;28;20131;-80
2023/10/30 02:44:13;;;;;;;8.48;1.88;;;;;;;10.15;100.00;99591.91;10462192;28;20783;-80
2023/10/30 02:49:13;;;;;;;6.70;2.30;;;;;;;10.13;100.00;99585.75;10451041;28;20041;-80
2023/10/30 02:54:14;;;;;;;13.27;3.15;;;;;;;10.15;100.00;99581.47;10480533;28;20196;-80
2023/10/30 02:59:14;;;;;;;7.63;2.47;;;;;;;10.13;100.00;99581.44;10455912;28;20041;-79
2023/10/30 03:04:16;;;;;;;13.15;3.13;;;;;;;10.12;100.00;99576.16;10472227;28;20187;-79
2023/10/30 03:09:17;;;;;;;13.25;3.28;;;;;;;10.09;100.00;99586.50;10463561;28;20378;-79
2023/10/30 03:14:17;;;;;;;10.15;3.40;;;;;;;10.07;100.00;99581.25;10446499;28;20068;-79
2023/10/30 03:19:18;;;;;;;14.75;3.88;;;;;;;9.98;100.00;99584.47;10472507;28;20116;-80
2023/10/30 03:24:18;;;;;;;11.38;2.50;;;;;;;10.00;100.00;99587.16;10468214;28;20537;-79
2023/10/30 03:29:19;;;;;;;12.13;3.58;;;;;;;10.03;100.00;99594.19;10463443;28;20090;-80
2023/10/30 03:34:20;;;;;;;12.48;2.85;;;;;;;9.98;100.00;99605.38;10446758;28;20061;-80
2023/10/30 03:39:20;;;;;;;7.57;2.58;;;;;;;9.93;100.00;99606.97;10469973;28;20032;-80
2023/10/30 03:44:24;;;;;;;6.45;2.70;;;;;;;9.89;100.00;99607.72;10471884;28;20580;-80
2023/10/30 03:49:25;;;;;;;13.18;2.60;;;;;;;9.89;100.00;99619.91;10461531;28;20041;-80
2023/10/30 03:54:26;;;;;;;9.07;2.50;;;;;;;9.80;100.00;99623.13;10462135;28;20124;-80
2023/10/30 03:59:26;;;;;;;7.70;2.05;;;;;;;9.82;100.00;99616.22;10454442;28;20067;-79
2023/10/30 04:04:27;;;;;;;9.15;2.45;;;;;;;9.88;100.00;99624.25;10473052;28;20059;-80
2023/10/30 04:09:27;;;;;;;17.38;3.78;;;;;;;9.83;100.00;99625.81;10439110;28;20082;-79
2023/10/30 04:14:31;;;;;;;9.27;2.42;;;;;;;9.73;100.00;99619.44;10442851;28;20549;-80
2023/10/30 04:19:31;;;;;;;15.00;3.33;;;;;;;9.71;100.00;99610.66;10453908;28;20048;-78
2023/10/30 04:24:32;;;;;;;11.05;5.72;;;;;;;9.70;100.00;99619.34;10459390;28;20480;-79
2023/10/30 04:29:32;;;;;;;16.63;3.25;;;;;;;9.67;100.00;99603.59;10461346;28;20037;-79
2023/10/30 04:34:33;;;;;;;8.10;3.08;;;;;;;9.53;100.00;99609.25;10464495;28;20074;-79
2023/10/30 04:39:33;;;;;;;14.60;2.40;;;;;;;9.55;100.00;99615.41;10473628;28;20135;-79
2023/10/30 04:44:34;;;;;;;8.40;2.55;;;;;;;9.47;100.00;99614.28;10450281;28;20040;-79
2023/10/30 04:49:35;;;;;;;9.57;2.28;;;;;;;9.34;100.00;99620.81;10465285;28;20063;-81
2023/10/30 04:54:36;;;;;;;9.52;3.90;;;;;;;9.29;100.00;99631.97;10458808;28;20040;-80
2023/10/30 04:59:36;;;;;;;15.15;4.53;;;;;;;9.23;100.00;99643.09;10471451;28;20194;-81
2023/10/30 05:04:37;;;;;;;10.40;2.53;;;;;;;9.16;100.00;99644.63;10481042;28;20040;-80
2023/10/30 05:09:37;;;;;;;11.25;2.40;;;;;;;9.18;100.00;99649.88;10465776;28;20052;-79
2023/10/30 05:14:38;;;;;;;8.60;2.28;;;;;;;9.04;100.00;99642.47;10475662;28;20127;-80
2023/10/30 05:19:38;;;;;;;13.52;4.15;;;;;;;9.01;100.00;99636.25;10459568;28;20175;-81
2023/10/30 05:24:39;;;;;;;13.07;2.22;;;;;;;8.92;100.00;99626.38;10475615;28;20048;-79
2023/10/30 05:29:40;;;;;;;16.27;4.38;;;;;;;8.80;100.00;99632.94;10453100;28;20123;-78
2023/10/30 05:34:40;;;;;;;16.20;5.05;;;;;;;8.64;100.00;99635.84;10463638;28;20493;-79
2023/10/30 05:39:41;;;;;;;13.98;3.47;;;;;;;8.56;100.00;99638.19;10458143;28;20045;-78
2023/10/30 05:44:41;;;;;;;17.45;3.15;;;;;;;8.40;100.00;99626.28;10428802;28;20043;-78
2023/10/30 05:49:42;;;;;;;10.27;2.60;;;;;;;8.28;100.00;99626.72;10455037;28;20552;-78
2023/10/30 05:54:42;;;;;;;13.63;3.70;;;;;;;8.19;100.00;99635.06;10472929;28;20128;-78
2023/10/30 05:59:43;;;;;;;14.73;3.08;;;;;;;8.05;100.00;99642.38;10458915;28;20549;-79
2023/10/30 06:04:44;;;;;;;13.27;3.38;;;;;;;7.91;100.00;99654.88;10469978;28;20131;-79
2023/10/30 06:09:45;;;;;;;9.95;3.85;;;;;;;7.79;100.00;99657.91;10462628;28;20048;-78
2023/10/30 06:14:45;;;;;;;24.20;3.47;;;;;;;7.71;100.00;99666.22;10443562;28;20062;-78
2023/10/30 06:19:46;;;;;;;10.95;2.65;;;;;;;7.74;100.00;99663.75;10445309;28;20434;-77
2023/10/30 06:24:47;;;;;;;14.15;5.45;;;;;;;7.62;100.00;99664.16;10461363;28;20370;-78
2023/10/30 06:29:48;;;;;;;15.23;3.28;;;;;;;7.58;100.00;99665.72;10445415;28;20037;-77
2023/10/30 06:34:49;;;;;;;15.95;4.88;;;;;;;7.69;100.00;99667.88;10458625;28;20033;-78
2023/10/30 06:39:49;;;;;;;9.93;3.38;;;;;;;7.58;100.00;99677.88;10431733;28;20116;-79
2023/10/30 06:44:51;;;;;;;9.23;3.78;;;;;;;7.45;100.00;99673.88;10468183;28;20047;-81
2023/10/30 06:49:52;;;;;;;;;;;;;;;7.47;100.00;99680.94;10457795;28;20513;-80
2023/10/30 06:54:52;;;;;;;12.50;4.45;;;;;;;7.52;100.00;99678.50;10470431;28;19928;-77
2023/10/30 06:59:55;;;;;;;12.25;4.47;;;;;;;7.46;100.00;99683.47;10463280;28;20037;-78
2023/10/30 07:04:56;;;;;;;9.48;3.80;;;;;;;7.40;100.00;99685.81;10465582;28;20047;-77
2023/10/30 07:09:57;;;;;;;14.82;4.22;;;;;;;7.32;100.00;99699.38;10458586;28;20041;-77
2023/10/30 07:14:57;;;;;;;20.02;5.28;;;;;;;7.31;100.00;99699.34;10455616;28;20040;-77
2023/10/30 07:19:58;;;;;;;15.57;6.28;;;;;;;7.32;100.00;99694.19;10446226;28;20139;-77
2023/10/30 07:25:00;;;;;;;25.95;3.65;;;;;;;7.63;100.00;99705.88;10470667;28;20041;-79
2023/10/30 07:30:02;;;;;;;15.15;5.57;;;;;;;7.78;100.00;99692.59;10442087;28;20036;-77
2023/10/30 07:35:03;;;;;;;19.63;5.60;;;;;;;8.01;100.00;99689.09;10470631;28;20569;-78
2023/10/30 07:40:05;;;;;;;9.70;3.70;;;;;;;8.20;100.00;99688.13;10461277;28;20072;-78
2023/10/30 07:45:06;;;;;;;15.88;5.88;;;;;;;8.31;100.00;99683.28;10474688;28;20079;-79
2023/10/30 07:50:06;;;;;;;16.73;4.75;;;;;;;8.48;100.00;99686.53;10471411;28;20055;-78
2023/10/30 07:55:08;;;;;;;10.48;3.63;;;;;;;8.67;100.00;99682.91;10473201;28;20086;-80
2023/10/30 08:00:09;;;;;;;9.13;3.03;;;;;;;9.04;100.00;99694.66;10452329;28;20044;-80
2023/10/30 08:05:09;;;;;;;18.52;3.35;;;;;;;9.37;100.00;99694.03;10468960;28;20386;-79
2023/10/30 08:10:11;;;;;;;13.43;3.55;;;;;;;9.48;100.00;99683.97;10448549;28;20123;-78
2023/10/30 08:15:12;;;;;;;9.75;3.10;;;;;;;9.77;100.00;99676.19;10470381;28;20440;-78
2023/10/30 08:20:13;;;;;;;7.88;4.75;;;;;;;9.99;100.00;99682.97;10469139;28;20053;-82
2023/10/30 08:25:13;;;;;;;12.93;3.00;;;;;;;10.23;100.00;99684.53;10464648;28;20479;-78
2023/10/30 08:30:19;;;;;;;11.73;4.63;;;;;;;10.35;100.00;99683.13;10441621;28;20045;-81
2023/10/30 08:35:27;;;;;;;16.35;4.55;;;;;;;10.49;100.00;99668.75;10458977;28;20045;-79
2023/10/30 08:40:28;;;;;;;12.43;2.95;;;;;;;10.78;100.00;99662.59;10466648;28;20041;-81
2023/10/30 08:45:28;;;;;;;7.65;2.70;;;;;;;11.10;100.00;99649.47;10458213;28;20037;-80
2023/10/30 08:50:29;;;;;;;10.98;2.70;;;;;;;11.36;100.00;99633.53;10459675;28;20510;-83
2023/10/30 08:55:30;;;;;;;8.90;2.88;;;;;;;11.44;100.00;99614.53;10461791;28;20122;-80
2023/10/30 09:00:30;;;;;;;8.93;2.55;;;;;;;11.65;100.00;99599.28;10466774;28;20426;-79
2023/10/30 09:05:31;;;;;;;13.88;2.55;;;;;;;11.77;100.00;99596.03;10467541;28;20127;-79
2023/10/30 09:10:32;;;;;;;10.82;1.83;;;;;;;11.86;100.00;99599.78;10477019;28;20036;-79
2023/10/30 09:15:33;;;;;;;5.90;1.50;;;;;;;11.90;100.00;99592.84;10444802;28;20036;-79
2023/10/30 09:20:34;;;;;;;10.15;2.72;;;;;;;12.14;100.00;99587.28;10478525;28;20109;-79
2023/10/30 09:25:34;;;;;;;13.43;2.38;;;;;;;12.29;100.00;99584.06;10439761;28;20126;-79
2023/10/30 09:30:35;;;;;;;9.00;2.25;;;;;;;12.32;100.00;99586.75;10467250;28;20128;-79
2023/10/30 09:35:37;;;;;;;13.98;3.00;;;;;;;12.29;100.00;99602.44;10464736;28;20116;-82
2023/10/30 09:40:37;;;;;;;;;;;;;;;12.37;100.00;99597.34;10458179;28;20036;-83
2023/10/30 09:45:38;;;;;;;6.55;2.13;;;;;;;12.52;100.00;99601.13;10467749;28;19928;-83
2023/10/30 09:50:39;;;;;;;7.78;3.08;;;;;;;12.55;100.00;99593.31;10449311;28;20190;-84
2023/10/30 09:55:39;;;;;;;9.25;1.92;;;;;;;12.51;100.00;99579.25;10445977;28;20036;-81
2023/10/30 10:00:40;;;;;;;14.77;3.83;;;;;;;13.21;100.00;99573.47;10455378;28;20112;-81
2023/10/30 10:05:41;;;;;;;7.38;1.77;;;;;;;13.81;100.00;99567.38;10438245;28;20077;-81
2023/10/30 10:10:59;;;;;;;10.70;1.98;;;;;;;13.91;100.00;99563.13;10472005;28;20124;-81
2023/10/30 10:16:00;;;;;;;6.68;2.13;;;;;;;13.73;100.00;99554.13;10472732;28;20555;-81
2023/10/30 10:21:03;;;;;;;8.25;1.98;;;;;;;13.57;100.00;99563.53;10455436;28;20049;-81
2023/10/30 10:26:14;;;;;;;11.45;2.20;;;;;;;13.52;100.00;99570.47;10438634;28;20401;-80
2023/10/30 10:31:16;;;;;;;8.10;1.73;;;;;;;13.53;100.00;99569.63;10471165;28;20067;-79
2023/10/30 10:36:17;;;;;;;9.52;2.17;;;;;;;13.59;100.00;99568.81;10440919;28;20549;-81
2023/10/30 10:41:17;;;;;;;6.47;1.98;;;;;;;13.72;100.00;99567.25;10463075;28;20038;-79
2023/10/30 10:46:18;;;;;;;7.47;1.80;;;;;;;13.81;100.00;99564.75;10453972;28;20036;-79
2023/10/30 10:51:30;;;;;;;9.43;2.70;;;;;;;13.76;100.00;99551.53;10438156;28;20154;-79
2023/10/30 10:56:31;;;;;;;7.07;1.83;;;;;;;13.78;100.00;99548.94;10442923;28;20579;-79
2023/10/30 11:01:34;;;;;;;6.97;1.60;;;;;;;13.83;100.00;99551.59;10449784;28;20059;-79
2023/10/30 11:06:37;;;;;;;5.32;2.83;;;;;;;13.79;100.00;99540.19;10453670;28;20037;-80
2023/10/30 11:11:43;;;;;;;12.10;3.47;;;;;;;13.46;100.00;99536.22;10444783;28;20041;-80
2023/10/30 11:16:52;;;;;;;79.65;45.10;;;;;;;13.26;100.00;99536.78;10451169;28;20117;-80
2023/10/30 11:21:52;;;;;;;17.40;5.78;;;;;;;13.25;100.00;99532.38;10469949;28;20871;-81
2023/10/30 11:26:53;;;;;;;4.82;1.65;;;;;;;13.27;100.00;99521.88;10463262;28;20053;-80
2023/10/30 11:32:00;;;;;;;7.32;1.15;;;;;;;13.43;100.00;99516.03;10461370;28;20045;-81
2023/10/30 11:37:07;;;;;;;4.82;0.90;;;;;;;13.58;100.00;99501.31;10468756;28;20041;-82
2023/10/30 11:42:26;;;;;;;6.30;1.67;;;;;;;13.65;100.00;99474.25;10470227;28;20040;-80
2023/10/30 11:47:27;;;;;;;11.10;2.80;;;;;;;13.70;100.00;99479.59;10463271;28;20102;-79
2023/10/30 11:52:27;;;;;;;8.77;1.63;;;;;;;13.69;100.00;99496.22;10454801;28;20151;-80
2023/10/30 11:57:28;;;;;;;5.72;1.45;;;;;;;13.67;100.00;99501.44;10459807;28;20048;-81
2023/10/30 12:02:29;;;;;;;9.15;2.40;;;;;;;13.44;100.00;99486.25;10467341;28;20048;-81
2023/10/30 12:07:29;;;;;;;6.47;1.92;;;;;;;13.33;100.00;99475.56;10456124;28;20072;-81
2023/10/30 12:12:31;;;;;;;7.10;1.60;;;;;;;13.20;100.00;99461.34;10477340;28;20400;-81
2023/10/30 12:17:31;;;;;;;6.20;2.17;;;;;;;13.12;100.00;99451.63;10443800;28;20041;-80
2023/10/30 12:22:37;;;;;;;6.68;1.63;;;;;;;13.07;100.00;99441.94;10467250;28;20041;-80
2023/10/30 12:27:38;;;;;;;5.90;1.67;;;;;;;13.12;100.00;99425.34;10471148;28;20127;-81
2023/10/30 12:32:38;;;;;;;6.05;2.17;;;;;;;13.06;100.00;99413.91;10459394;28;20037;-81
2023/10/30 12:37:39;;;;;;;7.15;2.35;;;;;;;12.99;100.00;99416.41;10461278;28;20036;-81
2023/10/30 12:42:42;;;;;;;17.60;2.90;;;;;;;12.81;100.00;99420.50;10445983;28;20037;-81
2023/10/30 12:47:44;;;;;;;29.23;8.65;;;;;;;12.72;100.00;99399.38;10443547;28;20110;-83
2023/10/30 12:52:45;;;;;;;15.20;3.75;;;;;;;12.87;100.00;99386.47;10465729;28;20373;-82
2023/10/30 12:57:45;;;;;;;11.68;2.92;;;;;;;13.10;100.00;99359.66;10448631;28;20044;-82
2023/10/30 13:02:46;;;;;;;5.18;2.58;;;;;;;13.30;100.00;99345.88;10457237;28;20041;-82
2023/10/30 13:07:46;;;;;;;10.82;2.97;;;;;;;13.43;100.00;99336.44;10472792;28;20507;-81
2023/10/30 13:12:48;;;;;;;6.05;1.73;;;;;;;13.42;100.00;99332.94;10461122;28;20120;-81
2023/10/30 13:17:49;;;;;;;6.15;2.08;;;;;;;13.21;100.00;99323.88;10458420;28;20040;-81
2023/10/30 13:22:49;;;;;;;10.48;2.55;;;;;;;12.99;100.00;99322.75;10463147;28;20036;-81
2023/10/30 13:27:50;;;;;;;3.83;1.48;;;;;;;12.91;100.00;99312.13;10454796;28;20055;-81
2023/10/30 13:32:56;;;;;;;8.88;3.00;;;;;;;12.66;100.00;99310.03;10457866;28;20071;-81
2023/10/30 13:37:56;;;;;;;6.80;2.13;;;;;;;12.58;100.00;99295.06;10440371;28;20052;-81
2023/10/30 13:43:00;;;;;;;7.72;2.03;;;;;;;12.55;100.00;99292.38;10466122;28;20129;-81
2023/10/30 13:48:00;;;;;;;8.25;2.38;;;;;;;12.51;100.00;99295.84;10461449;28;20047;-81
2023/10/30 13:53:01;;;;;;;7.22;2.10;;;;;;;12.43;100.00;99289.59;10466686;28;20048;-81
2023/10/30 13:58:02;;;;;;;6.50;1.63;;;;;;;12.38;100.00;99276.41;10465536;28;20179;-81
2023/10/30 14:03:03;;;;;;;7.63;2.17;;;;;;;12.31;100.00;99291.16;10461005;28;20040;-81
2023/10/30 14:08:03;;;;;;;15.00;4.10;;;;;;;12.30;100.00;99270.19;10442840;28;20040;-82
2023/10/30 14:13:04;;;;;;;6.63;2.53;;;;;;;12.24;100.00;99267.47;10455092;28;20029;-82
2023/10/30 14:18:04;;;;;;;11.82;3.95;;;;;;;12.07;100.00;99275.03;10454104;28;20051;-82
2023/10/30 14:23:05;;;;;;;10.32;2.50;;;;;;;12.01;100.00;99273.22;10478949;28;20036;-81
2023/10/30 14:28:05;;;;;;;4.93;1.58;;;;;;;11.92;100.00;99263.41;10463860;28;20082;-81
2023/10/30 14:33:06;;;;;;;8.30;4.47;;;;;;;11.85;100.00;99256.31;10456244;28;20131;-81
2023/10/30 14:38:06;;;;;;;6.40;2.38;;;;;;;11.71;100.00;99245.63;10416393;28;20566;-81
2023/10/30 14:43:08;;;;;;;7.78;2.58;;;;;;;11.60;100.00;99248.03;10423612;28;20041;-81
2023/10/30 14:48:09;;;;;;;8.65;3.67;;;;;;;11.52;100.00;99260.13;10445174;28;20036;-81
2023/10/30 14:53:09;;;;;;;8.75;4.25;;;;;;;11.46;100.00;99259.16;10437938;28;20115;-81
2023/10/30 14:58:10;;;;;;;5.50;2.50;;;;;;;11.39;100.00;99259.03;10471257;28;20840;-81
2023/10/30 15:03:11;;;;;;;5.75;2.13;;;;;;;11.26;100.00;99256.16;10446431;28;20178;-82
2023/10/30 15:08:11;;;;;;;6.55;2.10;;;;;;;11.20;100.00;99250.81;10446044;28;20483;-81
2023/10/30 15:13:13;;;;;;;11.20;3.03;;;;;;;11.12;100.00;99260.25;10436893;28;20036;-81
2023/10/30 15:18:13;;;;;;;8.82;2.10;;;;;;;10.99;100.00;99257.41;10450588;28;20075;-82
2023/10/30 15:23:14;;;;;;;5.15;2.20;;;;;;;10.90;100.00;99251.06;10426320;28;20113;-82
2023/10/30 15:28:14;;;;;;;7.07;2.28;;;;;;;10.83;100.00;99257.94;10425998;28;20040;-83
2023/10/30 15:33:15;;;;;;;4.28;2.00;;;;;;;10.76;100.00;99256.91;10429113;28;20495;-83
2023/10/30 15:38:15;;;;;;;7.90;2.92;;;;;;;10.67;100.00;99254.09;10430365;28;20032;-81
2023/10/30 15:43:16;;;;;;;9.05;3.47;;;;;;;10.62;100.00;99261.88;10450731;28;20060;-82
2023/10/30 15:48:16;;;;;;;5.30;2.10;;;;;;;10.62;100.00;99263.59;10458098;28;20097;-81
2023/10/30 15:53:17;;;;;;;6.80;3.17;;;;;;;10.63;100.00;99247.03;10439763;28;20056;-82
2023/10/30 15:58:20;;;;;;;7.95;2.63;;;;;;;10.63;100.00;99242.69;10460460;28;20120;-83
2023/10/30 16:03:21;;;;;;;6.88;3.83;;;;;;;10.63;100.00;99247.94;10468451;28;20123;-83
2023/10/30 16:08:22;;;;;;;12.00;3.67;;;;;;;10.56;100.00;99231.19;10449593;28;20040;-83
2023/10/30 16:13:25;;;;;;;6.70;3.10;;;;;;;10.51;100.00;99221.50;10436307;28;20044;-82
2023/10/30 16:18:25;;;;;;;8.95;2.97;;;;;;;10.46;100.00;99231.00;10462936;28;20572;-84
2023/10/30 16:23:26;;;;;;;5.60;3.05;;;;;;;10.42;100.00;99235.25;10454852;28;20040;-85
2023/10/30 16:28:26;;;;;;;6.90;3.42;;;;;;;10.42;100.00;99240.47;10456641;28;20148;-84
2023/10/30 16:33:27;;;;;;;11.95;5.53;;;;;;;10.43;100.00;99229.16;10465305;28;20036;-84
2023/10/30 16:38:27;;;;;;;11.45;3.83;;;;;;;10.46;100.00;99231.84;10454415;28;20185;-83
2023/10/30 16:43:28;;;;;;;11.02;4.68;;;;;;;10.51;100.00;99224.13;10454793;28;20063;-85
2023/10/30 16:48:28;;;;;;;7.43;5.15;;;;;;;10.62;100.00;99224.34;10461018;28;20042;-86
2023/10/30 16:53:29;;;;;;;9.13;5.90;;;;;;;10.77;100.00;99211.56;10473853;28;20075;-82
2023/10/30 16:58:29;;;;;;;11.40;7.03;;;;;;;10.80;100.00;99221.25;10459404;28;20038;-85
2023/10/30 17:03:30;;;;;;;11.60;5.72;;;;;;;10.72;100.00;99215.81;10443443;28;20052;-88
2023/10/30 17:08:30;;;;;;;23.40;8.63;;;;;;;10.69;100.00;99219.28;10454340;28;20040;-86
2023/10/30 17:13:31;;;;;;;13.68;7.53;;;;;;;10.73;100.00;99225.44;10450372;28;20053;-85
2023/10/30 17:18:33;;;;;;;16.85;10.20;;;;;;;10.79;100.00;99228.19;10423704;28;20098;-83
2023/10/30 17:23:34;;;;;;;15.23;8.68;;;;;;;10.80;100.00;99227.34;10451789;28;20524;-85
2023/10/30 17:28:35;;;;;;;18.70;10.70;;;;;;;10.84;100.00;99212.59;10445120;28;20099;-85
2023/10/30 17:33:35;;;;;;;14.70;9.02;;;;;;;10.86;100.00;99221.34;10438083;28;20029;-86
2023/10/30 17:38:36;;;;;;;14.77;8.80;;;;;;;10.84;100.00;99217.84;10432343;28;20052;-83
2023/10/30 17:43:36;;;;;;;15.77;9.05;;;;;;;10.77;100.00;99203.72;10443125;28;20493;-83
2023/10/30 17:48:37;;;;;;;17.58;11.90;;;;;;;10.80;100.00;99206.41;10465991;28;20064;-83
2023/10/30 17:53:37;;;;;;;14.82;10.20;;;;;;;10.90;100.00;99202.25;10419061;28;20036;-83
2023/10/30 17:58:38;;;;;;;17.83;11.02;;;;;;;10.86;100.00;99195.19;10463107;28;20486;-81
2023/10/30 18:03:40;;;;;;;16.95;10.85;;;;;;;10.87;100.00;99197.81;10441707;28;20135;-81
2023/10/30 18:08:41;;;;;;;;;;;;;;;10.90;100.00;99190.88;10431384;28;20044;-81
2023/10/30 18:13:41;;;;;;;16.60;11.40;;;;;;;10.92;100.00;99197.94;10461634;28;20323;-80
2023/10/30 18:18:42;;;;;;;18.75;11.80;;;;;;;10.92;100.00;99178.69;10430980;28;20040;-80
2023/10/30 18:23:42;;;;;;;17.98;12.65;;;;;;;10.94;100.00;99156.06;10422052;28;20124;-82
2023/10/30 18:28:42;;;;;;;17.92;12.35;;;;;;;10.95;100.00;99143.00;10464804;28;20552;-80
2023/10/30 18:33:43;;;;;;;18.13;12.68;;;;;;;10.95;100.00;99134.25;10438851;28;20118;-81
2023/10/30 18:38:43;;;;;;;17.98;12.63;;;;;;;10.90;100.00;99133.28;10462860;28;20198;-79
2023/10/30 18:43:44;;;;;;;18.58;12.02;;;;;;;10.83;100.00;99138.41;10442009;28;20024;-80
2023/10/30 18:48:45;;;;;;;21.27;13.38;;;;;;;10.84;100.00;99137.56;10463797;28;20119;-79
2023/10/30 18:53:45;;;;;;;20.30;13.32;;;;;;;10.83;100.00;99130.56;10460102;28;20060;-80
2023/10/30 18:58:46;;;;;;;21.10;12.60;;;;;;;10.77;100.00;99130.44;10421474;28;20141;-79
2023/10/30 19:03:47;;;;;;;22.30;15.75;;;;;;;10.69;100.00;99122.47;10458383;28;20098;-82
2023/10/30 19:08:51;;;;;;;22.43;14.83;;;;;;;10.69;100.00;99121.56;10447538;28;20123;-81
2023/10/30 19:13:53;;;;;;;31.58;22.40;;;;;;;10.73;100.00;99115.53;10460350;28;20789;-80
2023/10/30 19:18:53;;;;;;;32.67;21.47;;;;;;;10.81;100.00;99121.81;10459040;28;20110;-79
2023/10/30 19:23:54;;;;;;;28.08;16.95;;;;;;;10.75;100.00;99112.97;10461867;28;20166;-79
2023/10/30 19:28:54;;;;;;;32.58;21.90;;;;;;;10.83;100.00;99117.47;10442943;28;20041;-79
2023/10/30 19:33:55;;;;;;;38.97;25.42;;;;;;;10.83;100.00;99117.47;10486694;28;20499;-82
2023/10/30 19:38:56;;;;;;;34.65;22.95;;;;;;;10.81;100.00;99113.09;10486399;28;20121;-81
2023/10/30 19:43:57;;;;;;;34.88;22.67;;;;;;;10.85;100.00;99113.16;10455470;28;20655;-80
2023/10/30 19:48:58;;;;;;;32.67;22.48;;;;;;;10.91;100.00;99104.56;10465674;28;20032;-81
2023/10/30 19:53:58;;;;;;;33.97;22.23;;;;;;;10.94;100.00;99095.84;10421269;28;20430;-80
2023/10/30 19:58:59;;;;;;;43.33;24.75;;;;;;;10.84;100.00;99100.94;10462345;28;20056;-80
2023/10/30 20:03:59;;;;;;;38.85;22.10;;;;;;;10.90;100.00;99097.56;10467837;28;20048;-80
2023/10/30 20:09:00;;;;;;;27.17;19.15;;;;;;;10.85;100.00;99093.97;10463415;28;20132;-80
2023/10/30 20:14:00;;;;;;;30.73;18.38;;;;;;;10.86;100.00;99082.66;10478994;28;20094;-79
2023/10/30 20:19:01;;;;;;;22.50;13.80;;;;;;;10.93;100.00;99081.00;10467284;28;20463;-80
2023/10/30 20:24:01;;;;;;;39.17;17.40;;;;;;;10.91;100.00;99081.00;10449385;28;20119;-80
2023/10/30 20:29:03;;;;;;;22.88;13.90;;;;;;;10.91;100.00;99073.16;10467524;28;20060;-80
2023/10/30 20:34:03;;;;;;;17.93;11.50;;;;;;;10.85;100.00;99068.66;10461562;28;20143;-79
2023/10/30 20:39:04;;;;;;;21.58;13.20;;;;;;;10.85;100.00;99055.59;10417910;28;20036;-79
2023/10/30 20:44:04;;;;;;;19.33;12.48;;;;;;;10.87;100.00;99058.25;10459166;28;20044;-79
2023/10/30 20:49:05;;;;;;;22.95;14.70;;;;;;;10.80;100.00;99049.38;10456520;28;20039;-80
2023/10/30 20:54:06;;;;;;;21.60;14.13;;;;;;;10.78;100.00;99047.63;10445712;28;20063;-82
2023/10/30 20:59:08;;;;;;;22.85;13.88;;;;;;;10.77;100.00;99045.84;10450274;28;20047;-80
2023/10/30 21:04:08;;;;;;;18.43;12.30;;;;;;;10.78;100.00;99039.75;10464975;28;20086;-80
2023/10/30 21:09:09;;;;;;;14.75;10.65;;;;;;;10.87;100.00;99042.53;10465292;28;20289;-79
2023/10/30 21:14:10;;;;;;;18.35;10.30;;;;;;;10.83;100.00;99038.97;10465156;28;20115;-80
2023/10/30 21:19:11;;;;;;;15.25;8.90;;;;;;;10.82;100.00;99037.22;10466344;28;20036;-80
2023/10/30 21:24:11;;;;;;;10.82;8.43;;;;;;;10.81;100.00;99030.22;10454023;28;20061;-78
2023/10/30 21:29:12;;;;;;;13.95;7.88;;;;;;;10.81;100.00;99024.13;10424542;28;20548;-79
2023/10/30 21:34:12;;;;;;;13.60;8.65;;;;;;;10.85;100.00;99033.78;10457697;28;20041;-80
2023/10/30 21:39:13;;;;;;;11.32;7.88;;;;;;;10.85;100.00;99018.94;10440034;28;20396;-79
2023/10/30 21:44:13;;;;;;;12.80;6.97;;;;;;;10.89;100.00;99019.00;10435427;28;20119;-79
2023/10/30 21:49:16;;;;;;;9.98;6.65;;;;;;;10.93;100.00;99020.81;10472382;28;20135;-79
2023/10/30 21:54:17;;;;;;;9.98;6.22;;;;;;;10.92;100.00;99011.19;10453785;28;20037;-79
2023/10/30 21:59:17;;;;;;;10.68;6.65;;;;;;;10.96;100.00;99011.28;10455713;28;20075;-80
2023/10/30 22:04:18;;;;;;;10.32;5.95;;;;;;;10.95;100.00;99006.00;10471672;28;20124;-80
2023/10/30 22:09:18;;;;;;;9.65;6.60;;;;;;;10.96;100.00;99005.16;10447258;28;20110;-80
2023/10/30 22:14:19;;;;;;;9.63;5.97;;;;;;;10.99;100.00;99003.47;10470679;28;20392;-79
2023/10/30 22:19:22;;;;;;;10.32;5.68;;;;;;;10.99;100.00;99008.72;10451054;28;20064;-80
2023/10/30 22:24:23;;;;;;;9.88;7.47;;;;;;;10.99;100.00;99023.53;10451531;28;20044;-79
2023/10/30 22:29:23;;;;;;;17.75;12.82;;;;;;;10.80;100.00;99043.28;10476749;28;20139;-79
2023/10/30 22:34:24;;;;;;;20.02;13.80;;;;;;;10.43;100.00;99054.84;10454822;28;20080;-79
2023/10/30 22:39:24;;;;;;;17.27;11.73;;;;;;;9.92;100.00;99074.69;10441285;28;20128;-78
2023/10/30 22:44:25;;;;;;;19.00;12.77;;;;;;;9.45;100.00;99085.84;10443183;28;20115;-79
2023/10/30 22:49:26;;;;;;;16.42;13.70;;;;;;;9.27;100.00;99086.25;10474639;28;20120;-81
2023/10/30 22:54:26;;;;;;;17.98;13.68;;;;;;;9.13;100.00;99095.47;10462062;28;20047;-81
2023/10/30 22:59:27;;;;;;;19.17;13.77;;;;;;;9.06;100.00;99124.03;10479663;28;20068;-81